Idlewild, Louisiana
Current Conditions -  °F | °C
As of 6:35 AM on Thursday 29 Jan 2015 (Local Time) from KPTN Reporting Station
Clear Clear  
Wind Chill: 55°   Ceiling: Unl
Heat Index: 55°   Visibility: 10mi
Dew Point: 52°   Wind: 9mph
Humidity: 88%   Direction: 150°SSE
Pressure: 30.2"   Gusts: NA
Location:  29.6955°N, 91.3176°W
Report Text: KPTN 291235Z AUTO 15008KT 10SM CLR 13/11 A3020 RMK AO1
Loading
Personal Weather Stations






























Interactive Weather Map New forecast layout! Learn more

10-Day Weather Forecast

Advertisements
Track Severe Weather on mobile